sensor_id;sensor_type;location;lat;lon;timestamp;P1;durP1;ratioP1;P2;durP2;ratioP2
43088;SDS011;28709;52.030;5.652;2024-01-30T00:01:26;12.15;;;8.23;;
43088;SDS011;28709;52.030;5.652;2024-01-30T00:03:51;16.75;;;9.13;;
43088;SDS011;28709;52.030;5.652;2024-01-30T00:06:20;16.08;;;8.68;;
43088;SDS011;28709;52.030;5.652;2024-01-30T00:08:46;13.95;;;7.53;;
43088;SDS011;28709;52.030;5.652;2024-01-30T00:11:14;16.65;;;9.30;;
43088;SDS011;28709;52.030;5.652;2024-01-30T00:13:40;13.02;;;8.85;;
43088;SDS011;28709;52.030;5.652;2024-01-30T00:16:06;14.43;;;8.70;;
43088;SDS011;28709;52.030;5.652;2024-01-30T00:18:32;14.60;;;8.85;;
43088;SDS011;28709;52.030;5.652;2024-01-30T00:20:57;11.05;;;8.32;;
43088;SDS011;28709;52.030;5.652;2024-01-30T00:23:23;14.82;;;8.13;;
43088;SDS011;28709;52.030;5.652;2024-01-30T00:25:49;13.90;;;8.90;;
43088;SDS011;28709;52.030;5.652;2024-01-30T00:28:15;12.43;;;8.10;;
43088;SDS011;28709;52.030;5.652;2024-01-30T00:30:41;10.25;;;7.95;;
43088;SDS011;28709;52.030;5.652;2024-01-30T00:33:06;11.30;;;7.70;;
43088;SDS011;28709;52.030;5.652;2024-01-30T00:35:33;13.82;;;8.82;;
43088;SDS011;28709;52.030;5.652;2024-01-30T00:37:58;12.48;;;8.70;;
43088;SDS011;28709;52.030;5.652;2024-01-30T00:40:24;14.98;;;9.00;;
43088;SDS011;28709;52.030;5.652;2024-01-30T00:42:50;13.63;;;8.40;;
43088;SDS011;28709;52.030;5.652;2024-01-30T00:45:16;10.48;;;7.38;;
43088;SDS011;28709;52.030;5.652;2024-01-30T00:47:42;10.73;;;7.40;;
43088;SDS011;28709;52.030;5.652;2024-01-30T00:50:08;10.48;;;7.18;;
43088;SDS011;28709;52.030;5.652;2024-01-30T00:52:34;13.05;;;7.00;;
43088;SDS011;28709;52.030;5.652;2024-01-30T00:55:00;12.02;;;7.60;;
43088;SDS011;28709;52.030;5.652;2024-01-30T00:57:26;12.82;;;7.72;;
43088;SDS011;28709;52.030;5.652;2024-01-30T00:59:52;15.40;;;7.43;;
43088;SDS011;28709;52.030;5.652;2024-01-30T01:02:18;15.35;;;8.43;;
43088;SDS011;28709;52.030;5.652;2024-01-30T01:04:44;14.38;;;7.95;;
43088;SDS011;28709;52.030;5.652;2024-01-30T01:07:11;12.70;;;7.38;;
43088;SDS011;28709;52.030;5.652;2024-01-30T01:09:36;12.40;;;7.50;;
43088;SDS011;28709;52.030;5.652;2024-01-30T01:12:02;13.02;;;8.05;;
43088;SDS011;28709;52.030;5.652;2024-01-30T01:14:28;15.23;;;7.90;;
43088;SDS011;28709;52.030;5.652;2024-01-30T01:16:54;13.07;;;8.00;;
43088;SDS011;28709;52.030;5.652;2024-01-30T01:19:20;11.80;;;7.25;;
43088;SDS011;28709;52.030;5.652;2024-01-30T01:21:45;13.35;;;6.82;;
43088;SDS011;28709;52.030;5.652;2024-01-30T01:24:11;11.10;;;7.40;;
43088;SDS011;28709;52.030;5.652;2024-01-30T01:26:37;15.85;;;7.70;;
43088;SDS011;28709;52.030;5.652;2024-01-30T01:29:03;11.68;;;6.75;;
43088;SDS011;28709;52.030;5.652;2024-01-30T01:31:34;11.70;;;7.20;;
43088;SDS011;28709;52.030;5.652;2024-01-30T01:34:04;10.73;;;7.07;;
43088;SDS011;28709;52.030;5.652;2024-01-30T01:36:30;10.82;;;7.05;;
43088;SDS011;28709;52.030;5.652;2024-01-30T01:38:56;13.77;;;7.45;;
43088;SDS011;28709;52.030;5.652;2024-01-30T01:41:22;13.45;;;7.85;;
43088;SDS011;28709;52.030;5.652;2024-01-30T01:43:47;11.85;;;8.15;;
43088;SDS011;28709;52.030;5.652;2024-01-30T01:46:13;12.10;;;7.45;;
43088;SDS011;28709;52.030;5.652;2024-01-30T01:48:39;16.20;;;7.75;;
43088;SDS011;28709;52.030;5.652;2024-01-30T01:51:05;17.27;;;7.65;;
43088;SDS011;28709;52.030;5.652;2024-01-30T01:53:31;12.40;;;7.50;;
43088;SDS011;28709;52.030;5.652;2024-01-30T01:55:57;11.75;;;7.18;;
43088;SDS011;28709;52.030;5.652;2024-01-30T01:58:23;15.70;;;7.30;;
43088;SDS011;28709;52.030;5.652;2024-01-30T02:00:53;10.55;;;7.03;;
43088;SDS011;28709;52.030;5.652;2024-01-30T02:03:19;12.00;;;7.32;;
43088;SDS011;28709;52.030;5.652;2024-01-30T02:05:49;11.85;;;7.38;;
43088;SDS011;28709;52.030;5.652;2024-01-30T02:08:16;14.02;;;7.80;;
43088;SDS011;28709;52.030;5.652;2024-01-30T02:10:41;12.20;;;7.30;;
43088;SDS011;28709;52.030;5.652;2024-01-30T02:13:07;12.30;;;6.38;;
43088;SDS011;28709;52.030;5.652;2024-01-30T02:15:33;10.85;;;6.80;;
43088;SDS011;28709;52.030;5.652;2024-01-30T02:17:58;11.07;;;6.85;;
43088;SDS011;28709;52.030;5.652;2024-01-30T02:20:24;15.45;;;7.78;;
43088;SDS011;28709;52.030;5.652;2024-01-30T02:22:52;11.50;;;7.60;;
43088;SDS011;28709;52.030;5.652;2024-01-30T02:25:29;11.15;;;6.82;;
43088;SDS011;28709;52.030;5.652;2024-01-30T02:27:58;12.15;;;7.90;;
43088;SDS011;28709;52.030;5.652;2024-01-30T02:30:24;10.27;;;7.07;;
43088;SDS011;28709;52.030;5.652;2024-01-30T02:32:50;11.70;;;6.82;;
43088;SDS011;28709;52.030;5.652;2024-01-30T02:35:15;12.77;;;7.85;;
43088;SDS011;28709;52.030;5.652;2024-01-30T02:37:41;11.70;;;7.28;;
43088;SDS011;28709;52.030;5.652;2024-01-30T02:40:07;14.20;;;7.28;;
43088;SDS011;28709;52.030;5.652;2024-01-30T02:42:32;14.80;;;8.02;;
43088;SDS011;28709;52.030;5.652;2024-01-30T02:44:58;10.02;;;7.05;;
43088;SDS011;28709;52.030;5.652;2024-01-30T02:47:24;12.02;;;7.88;;
43088;SDS011;28709;52.030;5.652;2024-01-30T02:49:49;13.73;;;7.65;;
43088;SDS011;28709;52.030;5.652;2024-01-30T02:52:15;12.48;;;8.02;;
43088;SDS011;28709;52.030;5.652;2024-01-30T02:54:40;10.07;;;7.45;;
43088;SDS011;28709;52.030;5.652;2024-01-30T02:57:06;9.38;;;7.55;;
43088;SDS011;28709;52.030;5.652;2024-01-30T02:59:31;10.98;;;7.70;;
43088;SDS011;28709;52.030;5.652;2024-01-30T03:02:00;13.50;;;7.40;;
43088;SDS011;28709;52.030;5.652;2024-01-30T03:04:26;14.10;;;7.80;;
43088;SDS011;28709;52.030;5.652;2024-01-30T03:06:52;14.43;;;7.32;;
43088;SDS011;28709;52.030;5.652;2024-01-30T03:09:18;14.73;;;8.13;;
43088;SDS011;28709;52.030;5.652;2024-01-30T03:11:43;13.32;;;7.93;;
43088;SDS011;28709;52.030;5.652;2024-01-30T03:14:09;11.85;;;7.90;;
43088;SDS011;28709;52.030;5.652;2024-01-30T03:16:37;11.90;;;7.50;;
43088;SDS011;28709;52.030;5.652;2024-01-30T03:19:04;10.77;;;7.43;;
43088;SDS011;28709;52.030;5.652;2024-01-30T03:21:32;10.80;;;7.20;;
43088;SDS011;28709;52.030;5.652;2024-01-30T03:23:58;11.95;;;7.18;;
43088;SDS011;28709;52.030;5.652;2024-01-30T03:26:24;15.23;;;7.40;;
43088;SDS011;28709;52.030;5.652;2024-01-30T03:28:50;11.38;;;7.28;;
43088;SDS011;28709;52.030;5.652;2024-01-30T03:31:15;15.30;;;7.70;;
43088;SDS011;28709;52.030;5.652;2024-01-30T03:33:41;11.48;;;7.93;;
43088;SDS011;28709;52.030;5.652;2024-01-30T03:36:07;11.27;;;7.10;;
43088;SDS011;28709;52.030;5.652;2024-01-30T03:38:33;9.80;;;7.32;;
43088;SDS011;28709;52.030;5.652;2024-01-30T03:40:59;14.13;;;7.40;;
43088;SDS011;28709;52.030;5.652;2024-01-30T03:43:25;10.88;;;6.93;;
43088;SDS011;28709;52.030;5.652;2024-01-30T03:45:51;9.98;;;6.80;;
43088;SDS011;28709;52.030;5.652;2024-01-30T03:48:17;10.85;;;6.75;;
43088;SDS011;28709;52.030;5.652;2024-01-30T03:50:43;9.90;;;6.53;;
43088;SDS011;28709;52.030;5.652;2024-01-30T03:53:09;11.02;;;7.93;;
43088;SDS011;28709;52.030;5.652;2024-01-30T03:55:34;14.18;;;7.28;;
43088;SDS011;28709;52.030;5.652;2024-01-30T03:58:00;10.02;;;6.82;;
43088;SDS011;28709;52.030;5.652;2024-01-30T04:00:26;11.70;;;7.60;;
43088;SDS011;28709;52.030;5.652;2024-01-30T04:02:51;11.75;;;7.22;;
43088;SDS011;28709;52.030;5.652;2024-01-30T04:05:17;10.70;;;6.75;;
43088;SDS011;28709;52.030;5.652;2024-01-30T04:07:43;16.00;;;7.63;;
43088;SDS011;28709;52.030;5.652;2024-01-30T04:10:09;11.93;;;7.57;;
43088;SDS011;28709;52.030;5.652;2024-01-30T04:12:35;10.65;;;7.47;;
43088;SDS011;28709;52.030;5.652;2024-01-30T04:15:01;12.75;;;7.72;;
43088;SDS011;28709;52.030;5.652;2024-01-30T04:17:27;12.45;;;7.90;;
43088;SDS011;28709;52.030;5.652;2024-01-30T04:19:54;13.32;;;8.45;;
43088;SDS011;28709;52.030;5.652;2024-01-30T04:22:19;12.15;;;7.18;;
43088;SDS011;28709;52.030;5.652;2024-01-30T04:24:46;13.60;;;7.95;;
43088;SDS011;28709;52.030;5.652;2024-01-30T04:27:12;12.10;;;8.13;;
43088;SDS011;28709;52.030;5.652;2024-01-30T04:29:37;12.25;;;7.82;;
43088;SDS011;28709;52.030;5.652;2024-01-30T04:32:03;12.55;;;6.88;;
43088;SDS011;28709;52.030;5.652;2024-01-30T04:34:29;9.90;;;6.68;;
43088;SDS011;28709;52.030;5.652;2024-01-30T04:36:55;13.10;;;8.02;;
43088;SDS011;28709;52.030;5.652;2024-01-30T04:39:21;12.40;;;7.75;;
43088;SDS011;28709;52.030;5.652;2024-01-30T04:41:46;11.57;;;7.50;;
43088;SDS011;28709;52.030;5.652;2024-01-30T04:44:13;11.00;;;6.97;;
43088;SDS011;28709;52.030;5.652;2024-01-30T04:46:39;11.10;;;6.75;;
43088;SDS011;28709;52.030;5.652;2024-01-30T04:49:04;12.73;;;8.13;;
43088;SDS011;28709;52.030;5.652;2024-01-30T04:51:32;9.65;;;6.80;;
43088;SDS011;28709;52.030;5.652;2024-01-30T04:53:58;12.48;;;7.28;;
43088;SDS011;28709;52.030;5.652;2024-01-30T04:56:24;12.02;;;6.85;;
43088;SDS011;28709;52.030;5.652;2024-01-30T04:58:49;11.60;;;7.45;;
43088;SDS011;28709;52.030;5.652;2024-01-30T05:01:15;11.40;;;7.47;;
43088;SDS011;28709;52.030;5.652;2024-01-30T05:03:41;9.57;;;6.97;;
43088;SDS011;28709;52.030;5.652;2024-01-30T05:06:07;10.30;;;6.28;;
43088;SDS011;28709;52.030;5.652;2024-01-30T05:08:33;12.98;;;7.68;;
43088;SDS011;28709;52.030;5.652;2024-01-30T05:11:01;12.48;;;6.88;;
43088;SDS011;28709;52.030;5.652;2024-01-30T05:13:28;11.57;;;7.68;;
43088;SDS011;28709;52.030;5.652;2024-01-30T05:15:57;9.63;;;7.00;;
43088;SDS011;28709;52.030;5.652;2024-01-30T05:18:23;12.07;;;7.18;;
43088;SDS011;28709;52.030;5.652;2024-01-30T05:20:51;10.48;;;7.38;;
43088;SDS011;28709;52.030;5.652;2024-01-30T05:23:17;14.85;;;7.90;;
43088;SDS011;28709;52.030;5.652;2024-01-30T05:25:43;10.63;;;6.97;;
43088;SDS011;28709;52.030;5.652;2024-01-30T05:28:08;10.15;;;6.88;;
43088;SDS011;28709;52.030;5.652;2024-01-30T05:30:34;16.67;;;7.10;;
43088;SDS011;28709;52.030;5.652;2024-01-30T05:32:59;12.05;;;7.65;;
43088;SDS011;28709;52.030;5.652;2024-01-30T05:35:25;15.15;;;7.30;;
43088;SDS011;28709;52.030;5.652;2024-01-30T05:37:51;11.23;;;6.50;;
43088;SDS011;28709;52.030;5.652;2024-01-30T05:40:16;15.85;;;6.75;;
43088;SDS011;28709;52.030;5.652;2024-01-30T05:42:42;9.10;;;6.25;;
43088;SDS011;28709;52.030;5.652;2024-01-30T05:45:08;13.80;;;7.45;;
43088;SDS011;28709;52.030;5.652;2024-01-30T05:47:34;10.63;;;6.93;;
43088;SDS011;28709;52.030;5.652;2024-01-30T05:50:00;9.82;;;6.50;;
43088;SDS011;28709;52.030;5.652;2024-01-30T05:52:25;11.02;;;7.13;;
43088;SDS011;28709;52.030;5.652;2024-01-30T05:54:51;11.55;;;7.10;;
43088;SDS011;28709;52.030;5.652;2024-01-30T05:57:17;10.20;;;7.20;;
43088;SDS011;28709;52.030;5.652;2024-01-30T05:59:43;12.85;;;6.97;;
43088;SDS011;28709;52.030;5.652;2024-01-30T06:02:12;13.18;;;6.80;;
43088;SDS011;28709;52.030;5.652;2024-01-30T06:04:38;12.93;;;7.30;;
43088;SDS011;28709;52.030;5.652;2024-01-30T06:07:04;11.48;;;7.30;;
43088;SDS011;28709;52.030;5.652;2024-01-30T06:09:31;10.15;;;6.97;;
43088;SDS011;28709;52.030;5.652;2024-01-30T06:11:57;13.13;;;7.40;;
43088;SDS011;28709;52.030;5.652;2024-01-30T06:14:22;10.27;;;6.70;;
43088;SDS011;28709;52.030;5.652;2024-01-30T06:16:48;10.32;;;6.97;;
43088;SDS011;28709;52.030;5.652;2024-01-30T06:19:14;14.27;;;6.38;;
43088;SDS011;28709;52.030;5.652;2024-01-30T06:21:40;11.55;;;6.32;;
43088;SDS011;28709;52.030;5.652;2024-01-30T06:24:05;11.52;;;6.53;;
43088;SDS011;28709;52.030;5.652;2024-01-30T06:26:31;12.18;;;6.45;;
43088;SDS011;28709;52.030;5.652;2024-01-30T06:28:57;14.40;;;7.53;;
43088;SDS011;28709;52.030;5.652;2024-01-30T06:31:22;16.77;;;6.95;;
43088;SDS011;28709;52.030;5.652;2024-01-30T06:33:49;13.73;;;6.63;;
43088;SDS011;28709;52.030;5.652;2024-01-30T06:36:15;9.75;;;6.45;;
43088;SDS011;28709;52.030;5.652;2024-01-30T06:38:41;13.00;;;6.50;;
43088;SDS011;28709;52.030;5.652;2024-01-30T06:41:06;11.75;;;6.43;;
43088;SDS011;28709;52.030;5.652;2024-01-30T06:43:32;9.65;;;6.35;;
43088;SDS011;28709;52.030;5.652;2024-01-30T06:45:58;10.32;;;6.50;;
43088;SDS011;28709;52.030;5.652;2024-01-30T06:48:24;11.57;;;5.88;;
43088;SDS011;28709;52.030;5.652;2024-01-30T06:50:50;10.07;;;6.32;;
43088;SDS011;28709;52.030;5.652;2024-01-30T06:53:18;10.70;;;6.68;;
43088;SDS011;28709;52.030;5.652;2024-01-30T06:55:44;9.15;;;6.40;;
43088;SDS011;28709;52.030;5.652;2024-01-30T06:58:10;12.80;;;6.68;;
43088;SDS011;28709;52.030;5.652;2024-01-30T07:00:36;13.85;;;6.85;;
43088;SDS011;28709;52.030;5.652;2024-01-30T07:03:02;10.27;;;6.40;;
43088;SDS011;28709;52.030;5.652;2024-01-30T07:05:28;9.98;;;5.78;;
43088;SDS011;28709;52.030;5.652;2024-01-30T07:07:54;11.80;;;7.22;;
43088;SDS011;28709;52.030;5.652;2024-01-30T07:10:19;10.63;;;5.95;;
43088;SDS011;28709;52.030;5.652;2024-01-30T07:12:45;15.68;;;7.18;;
43088;SDS011;28709;52.030;5.652;2024-01-30T07:15:11;11.23;;;7.00;;
43088;SDS011;28709;52.030;5.652;2024-01-30T07:17:37;11.70;;;7.05;;
43088;SDS011;28709;52.030;5.652;2024-01-30T07:20:03;10.95;;;7.03;;
43088;SDS011;28709;52.030;5.652;2024-01-30T07:22:29;11.35;;;6.18;;
43088;SDS011;28709;52.030;5.652;2024-01-30T07:24:56;10.00;;;6.10;;
43088;SDS011;28709;52.030;5.652;2024-01-30T07:27:22;12.85;;;6.60;;
43088;SDS011;28709;52.030;5.652;2024-01-30T07:29:47;10.73;;;6.82;;
43088;SDS011;28709;52.030;5.652;2024-01-30T07:32:13;10.45;;;6.15;;
43088;SDS011;28709;52.030;5.652;2024-01-30T07:34:38;8.50;;;5.72;;
43088;SDS011;28709;52.030;5.652;2024-01-30T07:37:04;9.20;;;6.43;;
43088;SDS011;28709;52.030;5.652;2024-01-30T07:39:30;10.52;;;6.35;;
43088;SDS011;28709;52.030;5.652;2024-01-30T07:41:55;11.10;;;6.30;;
43088;SDS011;28709;52.030;5.652;2024-01-30T07:44:21;9.75;;;6.50;;
43088;SDS011;28709;52.030;5.652;2024-01-30T07:46:47;9.40;;;5.88;;
43088;SDS011;28709;52.030;5.652;2024-01-30T07:49:13;10.00;;;6.32;;
43088;SDS011;28709;52.030;5.652;2024-01-30T07:51:39;9.32;;;6.22;;
43088;SDS011;28709;52.030;5.652;2024-01-30T07:54:14;8.88;;;6.43;;
43088;SDS011;28709;52.030;5.652;2024-01-30T07:56:40;8.95;;;6.10;;
43088;SDS011;28709;52.030;5.652;2024-01-30T07:59:09;10.82;;;6.25;;
43088;SDS011;28709;52.030;5.652;2024-01-30T08:01:35;10.45;;;6.38;;
43088;SDS011;28709;52.030;5.652;2024-01-30T08:04:01;8.75;;;5.35;;
43088;SDS011;28709;52.030;5.652;2024-01-30T08:06:26;11.25;;;6.10;;
43088;SDS011;28709;52.030;5.652;2024-01-30T08:08:52;8.88;;;5.25;;
43088;SDS011;28709;52.030;5.652;2024-01-30T08:11:19;9.90;;;6.53;;
43088;SDS011;28709;52.030;5.652;2024-01-30T08:13:50;26.35;;;8.90;;
43088;SDS011;28709;52.030;5.652;2024-01-30T08:16:16;13.65;;;5.80;;
43088;SDS011;28709;52.030;5.652;2024-01-30T08:18:42;11.82;;;6.00;;
43088;SDS011;28709;52.030;5.652;2024-01-30T08:21:07;11.80;;;6.75;;
43088;SDS011;28709;52.030;5.652;2024-01-30T08:23:34;12.52;;;6.85;;
43088;SDS011;28709;52.030;5.652;2024-01-30T08:25:59;16.10;;;6.78;;
43088;SDS011;28709;52.030;5.652;2024-01-30T08:28:25;11.52;;;6.00;;
43088;SDS011;28709;52.030;5.652;2024-01-30T08:30:51;8.93;;;6.05;;
43088;SDS011;28709;52.030;5.652;2024-01-30T08:33:17;11.68;;;6.20;;
43088;SDS011;28709;52.030;5.652;2024-01-30T08:35:43;9.45;;;5.88;;
43088;SDS011;28709;52.030;5.652;2024-01-30T08:38:08;9.60;;;6.10;;
43088;SDS011;28709;52.030;5.652;2024-01-30T08:40:34;8.25;;;5.72;;
43088;SDS011;28709;52.030;5.652;2024-01-30T08:43:00;8.68;;;5.57;;
43088;SDS011;28709;52.030;5.652;2024-01-30T08:45:25;13.90;;;6.60;;
43088;SDS011;28709;52.030;5.652;2024-01-30T08:47:51;12.95;;;6.72;;
43088;SDS011;28709;52.030;5.652;2024-01-30T08:50:17;10.70;;;6.05;;
43088;SDS011;28709;52.030;5.652;2024-01-30T08:52:42;13.55;;;6.53;;
43088;SDS011;28709;52.030;5.652;2024-01-30T08:55:08;12.40;;;6.32;;
43088;SDS011;28709;52.030;5.652;2024-01-30T08:57:34;13.60;;;6.78;;
43088;SDS011;28709;52.030;5.652;2024-01-30T09:00:00;9.93;;;6.25;;
43088;SDS011;28709;52.030;5.652;2024-01-30T09:02:29;10.75;;;6.15;;
43088;SDS011;28709;52.030;5.652;2024-01-30T09:04:55;9.50;;;5.80;;
43088;SDS011;28709;52.030;5.652;2024-01-30T09:07:20;10.77;;;5.60;;
43088;SDS011;28709;52.030;5.652;2024-01-30T09:09:46;12.65;;;5.78;;
43088;SDS011;28709;52.030;5.652;2024-01-30T09:12:11;17.63;;;6.95;;
43088;SDS011;28709;52.030;5.652;2024-01-30T09:14:38;12.02;;;5.93;;
43088;SDS011;28709;52.030;5.652;2024-01-30T09:17:05;17.85;;;6.80;;
43088;SDS011;28709;52.030;5.652;2024-01-30T09:19:30;13.20;;;6.10;;
43088;SDS011;28709;52.030;5.652;2024-01-30T09:21:56;10.50;;;6.35;;
43088;SDS011;28709;52.030;5.652;2024-01-30T09:24:22;12.90;;;6.28;;
43088;SDS011;28709;52.030;5.652;2024-01-30T09:26:47;9.43;;;5.53;;
43088;SDS011;28709;52.030;5.652;2024-01-30T09:29:13;12.07;;;5.90;;
43088;SDS011;28709;52.030;5.652;2024-01-30T09:31:38;12.63;;;6.15;;
43088;SDS011;28709;52.030;5.652;2024-01-30T09:34:04;11.45;;;6.07;;
43088;SDS011;28709;52.030;5.652;2024-01-30T09:36:30;9.43;;;6.20;;
43088;SDS011;28709;52.030;5.652;2024-01-30T09:38:56;12.23;;;6.40;;
43088;SDS011;28709;52.030;5.652;2024-01-30T09:41:23;9.80;;;6.05;;
43088;SDS011;28709;52.030;5.652;2024-01-30T09:43:50;11.18;;;6.75;;
43088;SDS011;28709;52.030;5.652;2024-01-30T09:46:16;9.68;;;6.10;;
43088;SDS011;28709;52.030;5.652;2024-01-30T09:48:48;12.27;;;6.05;;
43088;SDS011;28709;52.030;5.652;2024-01-30T09:51:15;16.58;;;6.88;;
43088;SDS011;28709;52.030;5.652;2024-01-30T09:53:42;15.50;;;6.43;;
43088;SDS011;28709;52.030;5.652;2024-01-30T09:56:09;12.30;;;6.30;;
43088;SDS011;28709;52.030;5.652;2024-01-30T09:58:36;13.65;;;7.18;;
43088;SDS011;28709;52.030;5.652;2024-01-30T10:01:01;13.02;;;6.72;;
43088;SDS011;28709;52.030;5.652;2024-01-30T10:03:27;16.38;;;7.00;;
43088;SDS011;28709;52.030;5.652;2024-01-30T10:05:53;10.73;;;5.57;;
43088;SDS011;28709;52.030;5.652;2024-01-30T10:08:21;10.82;;;5.90;;
43088;SDS011;28709;52.030;5.652;2024-01-30T10:10:46;13.43;;;6.85;;
43088;SDS011;28709;52.030;5.652;2024-01-30T10:13:13;11.35;;;6.47;;
43088;SDS011;28709;52.030;5.652;2024-01-30T10:15:38;13.05;;;6.47;;
43088;SDS011;28709;52.030;5.652;2024-01-30T10:18:05;14.40;;;6.30;;
43088;SDS011;28709;52.030;5.652;2024-01-30T10:20:31;12.70;;;6.85;;
43088;SDS011;28709;52.030;5.652;2024-01-30T10:22:57;11.05;;;5.75;;
43088;SDS011;28709;52.030;5.652;2024-01-30T10:25:25;14.73;;;7.03;;
43088;SDS011;28709;52.030;5.652;2024-01-30T10:27:54;13.85;;;6.18;;
43088;SDS011;28709;52.030;5.652;2024-01-30T10:30:23;15.10;;;7.25;;
43088;SDS011;28709;52.030;5.652;2024-01-30T10:32:49;14.45;;;6.88;;
43088;SDS011;28709;52.030;5.652;2024-01-30T10:35:16;14.80;;;5.95;;
43088;SDS011;28709;52.030;5.652;2024-01-30T10:37:46;11.65;;;5.93;;
43088;SDS011;28709;52.030;5.652;2024-01-30T10:40:13;14.15;;;5.35;;
43088;SDS011;28709;52.030;5.652;2024-01-30T10:42:42;9.88;;;4.70;;
43088;SDS011;28709;52.030;5.652;2024-01-30T10:45:09;10.48;;;4.93;;
43088;SDS011;28709;52.030;5.652;2024-01-30T10:47:43;13.57;;;5.00;;
43088;SDS011;28709;52.030;5.652;2024-01-30T10:50:13;12.00;;;5.20;;
43088;SDS011;28709;52.030;5.652;2024-01-30T10:52:39;8.95;;;4.80;;
43088;SDS011;28709;52.030;5.652;2024-01-30T10:55:07;11.82;;;5.13;;
43088;SDS011;28709;52.030;5.652;2024-01-30T10:57:36;14.80;;;5.28;;
43088;SDS011;28709;52.030;5.652;2024-01-30T11:00:06;9.85;;;4.75;;
43088;SDS011;28709;52.030;5.652;2024-01-30T11:05:04;12.18;;;4.88;;
43088;SDS011;28709;52.030;5.652;2024-01-30T11:07:30;10.20;;;5.40;;
43088;SDS011;28709;52.030;5.652;2024-01-30T11:12:28;9.68;;;4.35;;
43088;SDS011;28709;52.030;5.652;2024-01-30T11:15:07;8.45;;;4.40;;
43088;SDS011;28709;52.030;5.652;2024-01-30T11:20:12;7.70;;;3.97;;
43088;SDS011;28709;52.030;5.652;2024-01-30T11:23:00;12.88;;;3.70;;
43088;SDS011;28709;52.030;5.652;2024-01-30T11:25:32;9.10;;;3.88;;
43088;SDS011;28709;52.030;5.652;2024-01-30T11:27:58;7.57;;;3.45;;
43088;SDS011;28709;52.030;5.652;2024-01-30T11:33:06;11.18;;;3.30;;
43088;SDS011;28709;52.030;5.652;2024-01-30T11:35:36;9.45;;;3.17;;
43088;SDS011;28709;52.030;5.652;2024-01-30T11:38:06;8.18;;;3.28;;
43088;SDS011;28709;52.030;5.652;2024-01-30T11:40:33;12.25;;;3.90;;
43088;SDS011;28709;52.030;5.652;2024-01-30T11:43:00;11.15;;;4.03;;
43088;SDS011;28709;52.030;5.652;2024-01-30T11:45:34;10.57;;;3.45;;
43088;SDS011;28709;52.030;5.652;2024-01-30T11:48:01;11.68;;;4.07;;
43088;SDS011;28709;52.030;5.652;2024-01-30T11:50:31;6.35;;;3.60;;
43088;SDS011;28709;52.030;5.652;2024-01-30T11:53:00;16.65;;;3.30;;
43088;SDS011;28709;52.030;5.652;2024-01-30T11:55:26;7.60;;;2.78;;
43088;SDS011;28709;52.030;5.652;2024-01-30T11:57:56;7.97;;;2.50;;
43088;SDS011;28709;52.030;5.652;2024-01-30T12:00:22;4.90;;;2.28;;
43088;SDS011;28709;52.030;5.652;2024-01-30T12:02:51;6.38;;;2.38;;
43088;SDS011;28709;52.030;5.652;2024-01-30T12:05:20;5.38;;;2.45;;
43088;SDS011;28709;52.030;5.652;2024-01-30T12:07:46;8.75;;;2.33;;
43088;SDS011;28709;52.030;5.652;2024-01-30T12:10:12;7.68;;;2.65;;
43088;SDS011;28709;52.030;5.652;2024-01-30T12:12:39;6.85;;;2.30;;
43088;SDS011;28709;52.030;5.652;2024-01-30T12:15:06;7.25;;;2.72;;
43088;SDS011;28709;52.030;5.652;2024-01-30T12:17:33;9.50;;;2.65;;
43088;SDS011;28709;52.030;5.652;2024-01-30T12:22:33;7.25;;;2.22;;
43088;SDS011;28709;52.030;5.652;2024-01-30T12:25:02;6.00;;;1.80;;
43088;SDS011;28709;52.030;5.652;2024-01-30T12:27:29;11.73;;;2.47;;
43088;SDS011;28709;52.030;5.652;2024-01-30T12:29:55;4.90;;;1.65;;
43088;SDS011;28709;52.030;5.652;2024-01-30T12:32:23;8.77;;;1.95;;
43088;SDS011;28709;52.030;5.652;2024-01-30T12:34:49;3.65;;;1.35;;
43088;SDS011;28709;52.030;5.652;2024-01-30T12:37:14;4.85;;;1.65;;
43088;SDS011;28709;52.030;5.652;2024-01-30T12:39:44;6.60;;;2.10;;
43088;SDS011;28709;52.030;5.652;2024-01-30T12:42:10;5.40;;;1.20;;
43088;SDS011;28709;52.030;5.652;2024-01-30T12:44:36;5.25;;;1.20;;
43088;SDS011;28709;52.030;5.652;2024-01-30T12:47:05;6.05;;;1.55;;
43088;SDS011;28709;52.030;5.652;2024-01-30T12:49:31;2.83;;;1.40;;
43088;SDS011;28709;52.030;5.652;2024-01-30T12:51:56;6.57;;;1.45;;
43088;SDS011;28709;52.030;5.652;2024-01-30T12:54:23;4.03;;;1.00;;
43088;SDS011;28709;52.030;5.652;2024-01-30T12:56:49;3.90;;;1.05;;
43088;SDS011;28709;52.030;5.652;2024-01-30T12:59:14;3.38;;;1.08;;
43088;SDS011;28709;52.030;5.652;2024-01-30T13:01:41;5.28;;;1.00;;
43088;SDS011;28709;52.030;5.652;2024-01-30T13:04:06;5.20;;;1.33;;
43088;SDS011;28709;52.030;5.652;2024-01-30T13:06:32;9.73;;;1.60;;
43088;SDS011;28709;52.030;5.652;2024-01-30T13:08:57;5.50;;;1.75;;
43088;SDS011;28709;52.030;5.652;2024-01-30T13:11:23;9.85;;;2.20;;
43088;SDS011;28709;52.030;5.652;2024-01-30T13:13:50;6.63;;;2.10;;
43088;SDS011;28709;52.030;5.652;2024-01-30T13:16:16;7.35;;;2.10;;
43088;SDS011;28709;52.030;5.652;2024-01-30T13:18:43;7.07;;;2.25;;
43088;SDS011;28709;52.030;5.652;2024-01-30T13:21:09;9.07;;;2.35;;
43088;SDS011;28709;52.030;5.652;2024-01-30T13:23:34;10.48;;;2.63;;
43088;SDS011;28709;52.030;5.652;2024-01-30T13:26:00;11.35;;;2.65;;
43088;SDS011;28709;52.030;5.652;2024-01-30T13:28:26;7.50;;;2.20;;
43088;SDS011;28709;52.030;5.652;2024-01-30T13:30:52;5.88;;;2.05;;
43088;SDS011;28709;52.030;5.652;2024-01-30T13:33:18;9.52;;;2.63;;
43088;SDS011;28709;52.030;5.652;2024-01-30T13:35:43;9.60;;;2.30;;
43088;SDS011;28709;52.030;5.652;2024-01-30T13:38:09;5.70;;;2.22;;
43088;SDS011;28709;52.030;5.652;2024-01-30T13:40:35;9.90;;;2.58;;
43088;SDS011;28709;52.030;5.652;2024-01-30T13:43:01;10.55;;;2.60;;
43088;SDS011;28709;52.030;5.652;2024-01-30T13:45:27;10.25;;;2.80;;
43088;SDS011;28709;52.030;5.652;2024-01-30T13:47:52;6.38;;;2.40;;
43088;SDS011;28709;52.030;5.652;2024-01-30T13:50:18;10.38;;;2.70;;
43088;SDS011;28709;52.030;5.652;2024-01-30T13:52:44;9.88;;;3.00;;
43088;SDS011;28709;52.030;5.652;2024-01-30T13:55:09;8.52;;;3.08;;
43088;SDS011;28709;52.030;5.652;2024-01-30T13:57:35;11.13;;;3.22;;
43088;SDS011;28709;52.030;5.652;2024-01-30T14:00:05;6.07;;;2.20;;
43088;SDS011;28709;52.030;5.652;2024-01-30T14:02:31;6.15;;;2.10;;
43088;SDS011;28709;52.030;5.652;2024-01-30T14:04:57;5.75;;;1.85;;
43088;SDS011;28709;52.030;5.652;2024-01-30T14:07:23;5.78;;;1.60;;
43088;SDS011;28709;52.030;5.652;2024-01-30T14:09:49;6.22;;;1.40;;
43088;SDS011;28709;52.030;5.652;2024-01-30T14:12:15;6.97;;;1.30;;
43088;SDS011;28709;52.030;5.652;2024-01-30T14:14:40;4.97;;;1.30;;
43088;SDS011;28709;52.030;5.652;2024-01-30T14:17:06;4.72;;;1.27;;
43088;SDS011;28709;52.030;5.652;2024-01-30T14:19:33;5.68;;;1.48;;
43088;SDS011;28709;52.030;5.652;2024-01-30T14:22:00;6.13;;;1.40;;
43088;SDS011;28709;52.030;5.652;2024-01-30T14:24:25;3.72;;;1.35;;
43088;SDS011;28709;52.030;5.652;2024-01-30T14:26:52;6.78;;;1.63;;
43088;SDS011;28709;52.030;5.652;2024-01-30T14:29:17;1.60;;;0.82;;
43088;SDS011;28709;52.030;5.652;2024-01-30T14:31:43;2.67;;;1.25;;
43088;SDS011;28709;52.030;5.652;2024-01-30T14:34:09;4.18;;;1.20;;
43088;SDS011;28709;52.030;5.652;2024-01-30T14:36:36;1.77;;;1.05;;
43088;SDS011;28709;52.030;5.652;2024-01-30T14:39:02;4.78;;;1.52;;
43088;SDS011;28709;52.030;5.652;2024-01-30T14:41:28;6.05;;;2.00;;
43088;SDS011;28709;52.030;5.652;2024-01-30T14:43:54;5.65;;;2.17;;
43088;SDS011;28709;52.030;5.652;2024-01-30T14:46:20;3.45;;;2.03;;